sensor_id;sensor_type;location;lat;lon;timestamp;P1;durP1;ratioP1;P2;durP2;ratioP2
41061;SDS011;26812;42.662;23.352;2023-04-24T00:01:49;9.43;;;7.90;;
41061;SDS011;26812;42.662;23.352;2023-04-24T00:04:15;9.23;;;6.95;;
41061;SDS011;26812;42.662;23.352;2023-04-24T00:06:42;7.90;;;6.82;;
41061;SDS011;26812;42.662;23.352;2023-04-24T00:09:08;9.15;;;6.63;;
41061;SDS011;26812;42.662;23.352;2023-04-24T00:11:37;11.50;;;6.93;;
41061;SDS011;26812;42.662;23.352;2023-04-24T00:14:02;10.18;;;7.40;;
41061;SDS011;26812;42.662;23.352;2023-04-24T00:16:28;9.80;;;7.00;;
41061;SDS011;26812;42.662;23.352;2023-04-24T00:18:53;8.43;;;7.03;;
41061;SDS011;26812;42.662;23.352;2023-04-24T00:21:20;7.80;;;5.88;;
41061;SDS011;26812;42.662;23.352;2023-04-24T00:23:46;8.80;;;6.40;;
41061;SDS011;26812;42.662;23.352;2023-04-24T00:26:19;7.68;;;6.70;;
41061;SDS011;26812;42.662;23.352;2023-04-24T00:28:44;8.38;;;5.97;;
41061;SDS011;26812;42.662;23.352;2023-04-24T00:31:09;11.55;;;6.22;;
41061;SDS011;26812;42.662;23.352;2023-04-24T00:33:35;7.28;;;6.57;;
41061;SDS011;26812;42.662;23.352;2023-04-24T00:36:00;8.82;;;5.75;;
41061;SDS011;26812;42.662;23.352;2023-04-24T00:38:26;8.98;;;6.05;;
41061;SDS011;26812;42.662;23.352;2023-04-24T00:40:51;7.47;;;5.88;;
41061;SDS011;26812;42.662;23.352;2023-04-24T00:43:18;7.75;;;5.60;;
41061;SDS011;26812;42.662;23.352;2023-04-24T00:45:44;7.20;;;5.80;;
41061;SDS011;26812;42.662;23.352;2023-04-24T00:48:10;7.40;;;5.22;;
41061;SDS011;26812;42.662;23.352;2023-04-24T00:50:36;12.50;;;6.13;;
41061;SDS011;26812;42.662;23.352;2023-04-24T00:53:03;6.47;;;5.03;;
41061;SDS011;26812;42.662;23.352;2023-04-24T00:55:29;6.35;;;5.70;;
41061;SDS011;26812;42.662;23.352;2023-04-24T00:57:55;7.53;;;6.28;;
41061;SDS011;26812;42.662;23.352;2023-04-24T01:00:21;8.60;;;6.10;;
41061;SDS011;26812;42.662;23.352;2023-04-24T01:02:47;8.02;;;6.93;;
41061;SDS011;26812;42.662;23.352;2023-04-24T01:05:13;8.65;;;7.20;;
41061;SDS011;26812;42.662;23.352;2023-04-24T01:07:43;8.85;;;7.13;;
41061;SDS011;26812;42.662;23.352;2023-04-24T01:10:11;8.32;;;6.65;;
41061;SDS011;26812;42.662;23.352;2023-04-24T01:12:38;9.90;;;6.60;;
41061;SDS011;26812;42.662;23.352;2023-04-24T01:15:03;8.18;;;6.72;;
41061;SDS011;26812;42.662;23.352;2023-04-24T01:17:30;7.45;;;5.80;;
41061;SDS011;26812;42.662;23.352;2023-04-24T01:19:56;7.30;;;6.20;;
41061;SDS011;26812;42.662;23.352;2023-04-24T01:22:22;5.57;;;4.97;;
41061;SDS011;26812;42.662;23.352;2023-04-24T01:24:48;6.55;;;5.63;;
41061;SDS011;26812;42.662;23.352;2023-04-24T01:27:13;6.97;;;5.35;;
41061;SDS011;26812;42.662;23.352;2023-04-24T01:29:39;6.07;;;4.90;;
41061;SDS011;26812;42.662;23.352;2023-04-24T01:32:05;7.80;;;5.25;;
41061;SDS011;26812;42.662;23.352;2023-04-24T01:34:31;9.40;;;5.30;;
41061;SDS011;26812;42.662;23.352;2023-04-24T01:36:57;5.82;;;5.32;;
41061;SDS011;26812;42.662;23.352;2023-04-24T01:39:22;7.45;;;5.35;;
41061;SDS011;26812;42.662;23.352;2023-04-24T01:41:50;5.50;;;4.75;;
41061;SDS011;26812;42.662;23.352;2023-04-24T01:44:18;6.65;;;5.10;;
41061;SDS011;26812;42.662;23.352;2023-04-24T01:46:44;6.38;;;5.05;;
41061;SDS011;26812;42.662;23.352;2023-04-24T01:49:10;6.25;;;5.30;;
41061;SDS011;26812;42.662;23.352;2023-04-24T01:51:35;8.25;;;6.13;;
41061;SDS011;26812;42.662;23.352;2023-04-24T01:54:01;7.75;;;5.57;;
41061;SDS011;26812;42.662;23.352;2023-04-24T01:56:28;7.50;;;5.68;;
41061;SDS011;26812;42.662;23.352;2023-04-24T01:58:55;12.15;;;5.95;;
41061;SDS011;26812;42.662;23.352;2023-04-24T02:01:23;6.38;;;5.80;;
41061;SDS011;26812;42.662;23.352;2023-04-24T02:03:49;6.85;;;5.97;;
41061;SDS011;26812;42.662;23.352;2023-04-24T02:06:15;8.38;;;6.28;;
41061;SDS011;26812;42.662;23.352;2023-04-24T02:08:40;10.02;;;6.40;;
41061;SDS011;26812;42.662;23.352;2023-04-24T02:11:06;6.80;;;6.10;;
41061;SDS011;26812;42.662;23.352;2023-04-24T02:13:31;6.50;;;5.75;;
41061;SDS011;26812;42.662;23.352;2023-04-24T02:15:58;6.05;;;5.45;;
41061;SDS011;26812;42.662;23.352;2023-04-24T02:18:23;8.23;;;6.57;;
41061;SDS011;26812;42.662;23.352;2023-04-24T02:20:49;7.65;;;6.90;;
41061;SDS011;26812;42.662;23.352;2023-04-24T02:23:14;8.10;;;6.32;;
41061;SDS011;26812;42.662;23.352;2023-04-24T02:25:40;7.45;;;6.75;;
41061;SDS011;26812;42.662;23.352;2023-04-24T02:28:05;7.22;;;6.45;;
41061;SDS011;26812;42.662;23.352;2023-04-24T02:30:31;8.25;;;6.43;;
41061;SDS011;26812;42.662;23.352;2023-04-24T02:32:56;11.02;;;7.05;;
41061;SDS011;26812;42.662;23.352;2023-04-24T02:35:22;11.60;;;7.22;;
41061;SDS011;26812;42.662;23.352;2023-04-24T02:37:47;10.02;;;7.45;;
41061;SDS011;26812;42.662;23.352;2023-04-24T02:40:13;8.75;;;6.88;;
41061;SDS011;26812;42.662;23.352;2023-04-24T02:42:38;7.78;;;6.57;;
41061;SDS011;26812;42.662;23.352;2023-04-24T02:45:04;10.40;;;7.45;;
41061;SDS011;26812;42.662;23.352;2023-04-24T02:47:30;7.20;;;6.50;;
41061;SDS011;26812;42.662;23.352;2023-04-24T02:49:55;7.63;;;6.93;;
41061;SDS011;26812;42.662;23.352;2023-04-24T02:52:21;7.68;;;6.90;;
41061;SDS011;26812;42.662;23.352;2023-04-24T02:54:46;11.20;;;7.07;;
41061;SDS011;26812;42.662;23.352;2023-04-24T02:57:11;8.85;;;6.95;;
41061;SDS011;26812;42.662;23.352;2023-04-24T02:59:37;7.90;;;6.97;;
41061;SDS011;26812;42.662;23.352;2023-04-24T03:02:02;14.20;;;8.05;;
41061;SDS011;26812;42.662;23.352;2023-04-24T03:04:28;10.52;;;7.30;;
41061;SDS011;26812;42.662;23.352;2023-04-24T03:06:53;9.10;;;6.50;;
41061;SDS011;26812;42.662;23.352;2023-04-24T03:09:20;9.52;;;7.53;;
41061;SDS011;26812;42.662;23.352;2023-04-24T03:11:46;10.13;;;7.38;;
41061;SDS011;26812;42.662;23.352;2023-04-24T03:14:11;10.98;;;7.85;;
41061;SDS011;26812;42.662;23.352;2023-04-24T03:16:37;10.43;;;6.93;;
41061;SDS011;26812;42.662;23.352;2023-04-24T03:19:03;9.35;;;8.13;;
41061;SDS011;26812;42.662;23.352;2023-04-24T03:21:28;10.15;;;8.88;;
41061;SDS011;26812;42.662;23.352;2023-04-24T03:23:54;8.23;;;7.43;;
41061;SDS011;26812;42.662;23.352;2023-04-24T03:26:19;10.35;;;8.48;;
41061;SDS011;26812;42.662;23.352;2023-04-24T03:28:45;8.90;;;7.43;;
41061;SDS011;26812;42.662;23.352;2023-04-24T03:31:10;11.40;;;8.45;;
41061;SDS011;26812;42.662;23.352;2023-04-24T03:33:36;12.07;;;8.07;;
41061;SDS011;26812;42.662;23.352;2023-04-24T03:36:01;11.13;;;8.70;;
41061;SDS011;26812;42.662;23.352;2023-04-24T03:38:27;10.55;;;7.97;;
41061;SDS011;26812;42.662;23.352;2023-04-24T03:40:52;11.95;;;7.53;;
41061;SDS011;26812;42.662;23.352;2023-04-24T03:43:18;10.13;;;7.47;;
41061;SDS011;26812;42.662;23.352;2023-04-24T03:45:43;8.15;;;7.32;;
41061;SDS011;26812;42.662;23.352;2023-04-24T03:48:09;8.48;;;7.53;;
41061;SDS011;26812;42.662;23.352;2023-04-24T03:50:34;13.02;;;8.50;;
41061;SDS011;26812;42.662;23.352;2023-04-24T03:53:00;8.20;;;7.40;;
41061;SDS011;26812;42.662;23.352;2023-04-24T03:55:25;11.32;;;8.38;;
41061;SDS011;26812;42.662;23.352;2023-04-24T03:57:51;11.00;;;7.07;;
41061;SDS011;26812;42.662;23.352;2023-04-24T04:00:16;12.27;;;7.13;;
41061;SDS011;26812;42.662;23.352;2023-04-24T04:02:41;7.95;;;7.15;;
41061;SDS011;26812;42.662;23.352;2023-04-24T04:05:07;9.80;;;7.70;;
41061;SDS011;26812;42.662;23.352;2023-04-24T04:07:33;8.90;;;8.00;;
41061;SDS011;26812;42.662;23.352;2023-04-24T04:09:58;9.05;;;7.63;;
41061;SDS011;26812;42.662;23.352;2023-04-24T04:12:24;8.65;;;7.28;;
41061;SDS011;26812;42.662;23.352;2023-04-24T04:14:49;9.38;;;8.13;;
41061;SDS011;26812;42.662;23.352;2023-04-24T04:17:15;9.00;;;7.82;;
41061;SDS011;26812;42.662;23.352;2023-04-24T04:19:40;12.57;;;7.82;;
41061;SDS011;26812;42.662;23.352;2023-04-24T04:22:06;9.05;;;7.85;;
41061;SDS011;26812;42.662;23.352;2023-04-24T04:24:33;7.88;;;7.03;;
41061;SDS011;26812;42.662;23.352;2023-04-24T04:26:58;11.43;;;7.18;;
41061;SDS011;26812;42.662;23.352;2023-04-24T04:29:24;9.38;;;7.45;;
41061;SDS011;26812;42.662;23.352;2023-04-24T04:31:50;8.77;;;6.30;;
41061;SDS011;26812;42.662;23.352;2023-04-24T04:34:17;8.13;;;6.90;;
41061;SDS011;26812;42.662;23.352;2023-04-24T04:36:43;7.45;;;6.47;;
41061;SDS011;26812;42.662;23.352;2023-04-24T04:39:09;8.25;;;5.95;;
41061;SDS011;26812;42.662;23.352;2023-04-24T04:41:34;9.35;;;6.60;;
41061;SDS011;26812;42.662;23.352;2023-04-24T04:44:00;8.95;;;6.60;;
41061;SDS011;26812;42.662;23.352;2023-04-24T04:46:26;7.28;;;5.97;;
41061;SDS011;26812;42.662;23.352;2023-04-24T04:48:52;7.10;;;6.28;;
41061;SDS011;26812;42.662;23.352;2023-04-24T04:51:18;6.30;;;5.70;;
41061;SDS011;26812;42.662;23.352;2023-04-24T04:53:43;8.68;;;5.78;;
41061;SDS011;26812;42.662;23.352;2023-04-24T04:56:09;8.30;;;5.68;;
41061;SDS011;26812;42.662;23.352;2023-04-24T04:58:35;5.70;;;5.00;;
41061;SDS011;26812;42.662;23.352;2023-04-24T05:01:01;5.82;;;5.15;;
41061;SDS011;26812;42.662;23.352;2023-04-24T05:03:27;7.50;;;6.10;;
41061;SDS011;26812;42.662;23.352;2023-04-24T05:06:00;7.95;;;5.68;;
41061;SDS011;26812;42.662;23.352;2023-04-24T05:08:27;7.05;;;5.90;;
41061;SDS011;26812;42.662;23.352;2023-04-24T05:10:52;6.20;;;5.40;;
41061;SDS011;26812;42.662;23.352;2023-04-24T05:13:18;8.90;;;5.50;;
41061;SDS011;26812;42.662;23.352;2023-04-24T05:15:43;9.23;;;5.80;;
41061;SDS011;26812;42.662;23.352;2023-04-24T05:18:09;7.43;;;5.70;;
41061;SDS011;26812;42.662;23.352;2023-04-24T05:20:34;5.82;;;5.22;;
41061;SDS011;26812;42.662;23.352;2023-04-24T05:23:00;9.68;;;5.95;;
41061;SDS011;26812;42.662;23.352;2023-04-24T05:25:25;6.75;;;5.15;;
41061;SDS011;26812;42.662;23.352;2023-04-24T05:27:51;6.55;;;5.75;;
41061;SDS011;26812;42.662;23.352;2023-04-24T05:30:16;7.28;;;6.22;;
41061;SDS011;26812;42.662;23.352;2023-04-24T05:32:41;7.75;;;5.85;;
41061;SDS011;26812;42.662;23.352;2023-04-24T05:35:07;8.07;;;5.57;;
41061;SDS011;26812;42.662;23.352;2023-04-24T05:37:33;7.90;;;6.10;;
41061;SDS011;26812;42.662;23.352;2023-04-24T05:39:58;8.57;;;6.10;;
41061;SDS011;26812;42.662;23.352;2023-04-24T05:42:24;9.43;;;5.85;;
41061;SDS011;26812;42.662;23.352;2023-04-24T05:44:49;9.30;;;6.15;;
41061;SDS011;26812;42.662;23.352;2023-04-24T05:47:15;7.63;;;5.78;;
41061;SDS011;26812;42.662;23.352;2023-04-24T05:49:40;7.78;;;6.50;;
41061;SDS011;26812;42.662;23.352;2023-04-24T05:52:06;7.05;;;6.22;;
41061;SDS011;26812;42.662;23.352;2023-04-24T05:54:33;8.85;;;6.32;;
41061;SDS011;26812;42.662;23.352;2023-04-24T05:56:59;9.25;;;6.63;;
41061;SDS011;26812;42.662;23.352;2023-04-24T05:59:25;8.05;;;6.30;;
41061;SDS011;26812;42.662;23.352;2023-04-24T06:01:51;9.27;;;6.57;;
41061;SDS011;26812;42.662;23.352;2023-04-24T06:04:16;7.95;;;6.63;;
41061;SDS011;26812;42.662;23.352;2023-04-24T06:06:42;8.35;;;5.97;;
41061;SDS011;26812;42.662;23.352;2023-04-24T06:09:07;9.07;;;6.88;;
41061;SDS011;26812;42.662;23.352;2023-04-24T06:11:32;10.00;;;6.93;;
41061;SDS011;26812;42.662;23.352;2023-04-24T06:13:58;8.70;;;6.57;;
41061;SDS011;26812;42.662;23.352;2023-04-24T06:16:23;9.23;;;7.10;;
41061;SDS011;26812;42.662;23.352;2023-04-24T06:18:49;7.90;;;7.20;;
41061;SDS011;26812;42.662;23.352;2023-04-24T06:21:15;7.03;;;6.43;;
41061;SDS011;26812;42.662;23.352;2023-04-24T06:23:41;11.52;;;7.50;;
41061;SDS011;26812;42.662;23.352;2023-04-24T06:26:06;10.60;;;7.00;;
41061;SDS011;26812;42.662;23.352;2023-04-24T06:28:32;8.60;;;7.22;;
41061;SDS011;26812;42.662;23.352;2023-04-24T06:30:57;9.00;;;7.55;;
41061;SDS011;26812;42.662;23.352;2023-04-24T06:33:23;9.68;;;7.30;;
41061;SDS011;26812;42.662;23.352;2023-04-24T06:35:48;8.68;;;7.10;;
41061;SDS011;26812;42.662;23.352;2023-04-24T06:38:13;11.40;;;7.63;;
41061;SDS011;26812;42.662;23.352;2023-04-24T06:40:39;8.82;;;7.93;;
41061;SDS011;26812;42.662;23.352;2023-04-24T06:43:05;9.63;;;7.07;;
41061;SDS011;26812;42.662;23.352;2023-04-24T06:45:31;8.68;;;7.53;;
41061;SDS011;26812;42.662;23.352;2023-04-24T06:47:56;9.80;;;7.72;;
41061;SDS011;26812;42.662;23.352;2023-04-24T06:50:22;12.10;;;8.20;;
41061;SDS011;26812;42.662;23.352;2023-04-24T06:52:47;11.02;;;8.30;;
41061;SDS011;26812;42.662;23.352;2023-04-24T06:55:13;11.93;;;8.35;;
41061;SDS011;26812;42.662;23.352;2023-04-24T06:57:40;7.53;;;6.82;;
41061;SDS011;26812;42.662;23.352;2023-04-24T07:00:06;11.20;;;7.85;;
41061;SDS011;26812;42.662;23.352;2023-04-24T07:02:32;14.27;;;8.32;;
41061;SDS011;26812;42.662;23.352;2023-04-24T07:04:57;12.93;;;8.13;;
41061;SDS011;26812;42.662;23.352;2023-04-24T07:07:22;12.52;;;8.10;;
41061;SDS011;26812;42.662;23.352;2023-04-24T07:09:48;12.00;;;7.28;;
41061;SDS011;26812;42.662;23.352;2023-04-24T07:12:15;14.77;;;8.23;;
41061;SDS011;26812;42.662;23.352;2023-04-24T07:14:42;12.07;;;7.75;;
41061;SDS011;26812;42.662;23.352;2023-04-24T07:17:07;9.70;;;7.30;;
41061;SDS011;26812;42.662;23.352;2023-04-24T07:19:33;11.10;;;7.47;;
41061;SDS011;26812;42.662;23.352;2023-04-24T07:22:00;9.02;;;7.35;;
41061;SDS011;26812;42.662;23.352;2023-04-24T07:24:26;11.32;;;8.02;;
41061;SDS011;26812;42.662;23.352;2023-04-24T07:26:52;10.98;;;7.90;;
41061;SDS011;26812;42.662;23.352;2023-04-24T07:29:19;11.52;;;7.72;;
41061;SDS011;26812;42.662;23.352;2023-04-24T07:31:44;11.52;;;8.48;;
41061;SDS011;26812;42.662;23.352;2023-04-24T07:34:10;10.02;;;8.25;;
41061;SDS011;26812;42.662;23.352;2023-04-24T07:36:36;12.23;;;8.02;;
41061;SDS011;26812;42.662;23.352;2023-04-24T07:39:03;10.88;;;8.68;;
41061;SDS011;26812;42.662;23.352;2023-04-24T07:41:29;9.63;;;7.68;;
41061;SDS011;26812;42.662;23.352;2023-04-24T07:43:54;9.13;;;6.82;;
41061;SDS011;26812;42.662;23.352;2023-04-24T07:46:20;9.35;;;6.13;;
41061;SDS011;26812;42.662;23.352;2023-04-24T07:48:45;7.13;;;6.40;;
41061;SDS011;26812;42.662;23.352;2023-04-24T07:51:13;7.28;;;5.88;;
41061;SDS011;26812;42.662;23.352;2023-04-24T07:53:39;6.75;;;6.13;;
41061;SDS011;26812;42.662;23.352;2023-04-24T07:56:05;8.35;;;5.93;;
41061;SDS011;26812;42.662;23.352;2023-04-24T07:58:31;8.48;;;6.32;;
41061;SDS011;26812;42.662;23.352;2023-04-24T08:00:56;6.72;;;5.43;;
41061;SDS011;26812;42.662;23.352;2023-04-24T08:03:21;7.75;;;6.20;;
41061;SDS011;26812;42.662;23.352;2023-04-24T08:05:47;10.23;;;6.53;;
41061;SDS011;26812;42.662;23.352;2023-04-24T08:08:12;6.45;;;5.65;;
41061;SDS011;26812;42.662;23.352;2023-04-24T08:10:38;9.35;;;6.93;;
41061;SDS011;26812;42.662;23.352;2023-04-24T08:13:04;12.13;;;7.28;;
41061;SDS011;26812;42.662;23.352;2023-04-24T08:15:30;9.48;;;5.72;;
41061;SDS011;26812;42.662;23.352;2023-04-24T08:17:55;8.52;;;5.80;;
41061;SDS011;26812;42.662;23.352;2023-04-24T08:20:22;8.13;;;6.00;;
41061;SDS011;26812;42.662;23.352;2023-04-24T08:22:47;7.63;;;5.90;;
41061;SDS011;26812;42.662;23.352;2023-04-24T08:25:13;7.95;;;6.53;;
41061;SDS011;26812;42.662;23.352;2023-04-24T08:27:39;7.35;;;6.47;;
41061;SDS011;26812;42.662;23.352;2023-04-24T08:30:05;7.35;;;6.65;;
41061;SDS011;26812;42.662;23.352;2023-04-24T08:32:31;8.93;;;5.85;;
41061;SDS011;26812;42.662;23.352;2023-04-24T08:34:57;6.00;;;5.47;;
41061;SDS011;26812;42.662;23.352;2023-04-24T08:37:23;6.63;;;6.03;;
41061;SDS011;26812;42.662;23.352;2023-04-24T08:39:49;10.30;;;6.30;;
41061;SDS011;26812;42.662;23.352;2023-04-24T08:42:16;10.07;;;6.55;;
41061;SDS011;26812;42.662;23.352;2023-04-24T08:44:42;9.07;;;5.60;;
41061;SDS011;26812;42.662;23.352;2023-04-24T08:47:09;6.13;;;5.47;;
41061;SDS011;26812;42.662;23.352;2023-04-24T08:49:47;6.95;;;5.13;;
41061;SDS011;26812;42.662;23.352;2023-04-24T08:52:13;8.90;;;5.47;;
41061;SDS011;26812;42.662;23.352;2023-04-24T08:54:39;6.18;;;4.90;;
41061;SDS011;26812;42.662;23.352;2023-04-24T08:57:08;5.65;;;5.15;;
41061;SDS011;26812;42.662;23.352;2023-04-24T08:59:36;6.22;;;5.63;;
41061;SDS011;26812;42.662;23.352;2023-04-24T09:02:03;6.05;;;4.97;;
41061;SDS011;26812;42.662;23.352;2023-04-24T09:04:29;6.28;;;5.05;;
41061;SDS011;26812;42.662;23.352;2023-04-24T09:06:55;5.10;;;4.60;;
41061;SDS011;26812;42.662;23.352;2023-04-24T09:09:22;4.95;;;4.45;;
41061;SDS011;26812;42.662;23.352;2023-04-24T09:11:49;9.45;;;5.03;;
41061;SDS011;26812;42.662;23.352;2023-04-24T09:14:16;7.20;;;4.68;;
41061;SDS011;26812;42.662;23.352;2023-04-24T09:16:42;6.32;;;4.63;;
41061;SDS011;26812;42.662;23.352;2023-04-24T09:19:07;7.10;;;5.35;;
41061;SDS011;26812;42.662;23.352;2023-04-24T09:21:33;5.35;;;3.92;;
41061;SDS011;26812;42.662;23.352;2023-04-24T09:24:01;5.35;;;4.78;;
41061;SDS011;26812;42.662;23.352;2023-04-24T09:26:29;8.20;;;5.45;;
41061;SDS011;26812;42.662;23.352;2023-04-24T09:28:57;7.70;;;4.53;;
41061;SDS011;26812;42.662;23.352;2023-04-24T09:31:22;9.15;;;6.72;;
41061;SDS011;26812;42.662;23.352;2023-04-24T09:33:55;7.13;;;6.43;;
41061;SDS011;26812;42.662;23.352;2023-04-24T09:36:35;7.15;;;5.82;;
41061;SDS011;26812;42.662;23.352;2023-04-24T09:39:06;5.22;;;4.72;;
41061;SDS011;26812;42.662;23.352;2023-04-24T09:41:33;5.60;;;4.75;;
41061;SDS011;26812;42.662;23.352;2023-04-24T09:44:12;6.07;;;5.00;;
41061;SDS011;26812;42.662;23.352;2023-04-24T09:46:40;9.43;;;4.47;;
41061;SDS011;26812;42.662;23.352;2023-04-24T09:49:11;7.35;;;4.68;;
41061;SDS011;26812;42.662;23.352;2023-04-24T09:51:40;8.02;;;4.63;;
41061;SDS011;26812;42.662;23.352;2023-04-24T09:54:15;4.72;;;4.30;;
41061;SDS011;26812;42.662;23.352;2023-04-24T09:56:46;6.68;;;4.55;;
41061;SDS011;26812;42.662;23.352;2023-04-24T09:59:19;7.70;;;4.72;;
41061;SDS011;26812;42.662;23.352;2023-04-24T10:01:45;7.10;;;4.68;;
41061;SDS011;26812;42.662;23.352;2023-04-24T10:04:23;7.70;;;5.82;;
41061;SDS011;26812;42.662;23.352;2023-04-24T10:06:56;7.90;;;4.40;;
41061;SDS011;26812;42.662;23.352;2023-04-24T10:09:40;6.93;;;4.75;;
41061;SDS011;26812;42.662;23.352;2023-04-24T10:12:09;5.72;;;4.97;;
41061;SDS011;26812;42.662;23.352;2023-04-24T10:14:35;5.85;;;4.45;;
41061;SDS011;26812;42.662;23.352;2023-04-24T10:17:01;5.68;;;4.40;;
41061;SDS011;26812;42.662;23.352;2023-04-24T10:19:27;5.13;;;4.63;;
41061;SDS011;26812;42.662;23.352;2023-04-24T10:21:55;5.22;;;4.72;;
41061;SDS011;26812;42.662;23.352;2023-04-24T10:24:22;7.30;;;5.30;;
41061;SDS011;26812;42.662;23.352;2023-04-24T10:26:47;5.63;;;4.70;;
41061;SDS011;26812;42.662;23.352;2023-04-24T10:29:14;6.05;;;4.38;;
41061;SDS011;26812;42.662;23.352;2023-04-24T10:31:41;7.15;;;4.43;;
41061;SDS011;26812;42.662;23.352;2023-04-24T10:34:10;5.97;;;3.95;;
41061;SDS011;26812;42.662;23.352;2023-04-24T10:36:36;8.15;;;5.22;;
41061;SDS011;26812;42.662;23.352;2023-04-24T10:39:08;6.32;;;4.50;;
41061;SDS011;26812;42.662;23.352;2023-04-24T10:41:39;7.78;;;5.38;;
41061;SDS011;26812;42.662;23.352;2023-04-24T10:44:05;8.18;;;4.40;;
41061;SDS011;26812;42.662;23.352;2023-04-24T10:46:32;6.03;;;4.50;;
41061;SDS011;26812;42.662;23.352;2023-04-24T10:49:03;4.88;;;4.07;;
41061;SDS011;26812;42.662;23.352;2023-04-24T10:51:50;5.35;;;3.88;;
41061;SDS011;26812;42.662;23.352;2023-04-24T10:54:41;4.80;;;3.92;;
41061;SDS011;26812;42.662;23.352;2023-04-24T10:59:51;4.60;;;3.97;;
41061;SDS011;26812;42.662;23.352;2023-04-24T11:02:40;3.75;;;3.45;;
41061;SDS011;26812;42.662;23.352;2023-04-24T11:08:44;6.03;;;3.35;;
41061;SDS011;26812;42.662;23.352;2023-04-24T11:11:14;4.10;;;3.70;;
41061;SDS011;26812;42.662;23.352;2023-04-24T11:16:44;5.03;;;4.18;;
41061;SDS011;26812;42.662;23.352;2023-04-24T11:19:33;4.65;;;4.18;;
41061;SDS011;26812;42.662;23.352;2023-04-24T11:22:05;5.45;;;4.60;;
41061;SDS011;26812;42.662;23.352;2023-04-24T11:28:02;5.85;;;5.22;;
41061;SDS011;26812;42.662;23.352;2023-04-24T11:34:09;5.40;;;4.00;;
41061;SDS011;26812;42.662;23.352;2023-04-24T11:37:17;5.45;;;4.15;;
41061;SDS011;26812;42.662;23.352;2023-04-24T11:40:34;4.95;;;4.15;;
41061;SDS011;26812;42.662;23.352;2023-04-24T11:43:20;7.10;;;3.88;;
41061;SDS011;26812;42.662;23.352;2023-04-24T11:49:09;5.68;;;3.67;;
41061;SDS011;26812;42.662;23.352;2023-04-24T11:51:34;3.90;;;3.60;;
41061;SDS011;26812;42.662;23.352;2023-04-24T11:54:00;5.47;;;4.97;;
41061;SDS011;26812;42.662;23.352;2023-04-24T11:56:25;4.40;;;4.03;;
41061;SDS011;26812;42.662;23.352;2023-04-24T12:01:46;5.10;;;4.63;;
41061;SDS011;26812;42.662;23.352;2023-04-24T12:04:46;4.55;;;4.18;;
41061;SDS011;26812;42.662;23.352;2023-04-24T12:07:14;5.38;;;3.88;;
41061;SDS011;26812;42.662;23.352;2023-04-24T12:09:44;5.25;;;4.28;;
41061;SDS011;26812;42.662;23.352;2023-04-24T12:15:39;5.95;;;4.63;;
41061;SDS011;26812;42.662;23.352;2023-04-24T12:18:05;4.80;;;4.32;;
41061;SDS011;26812;42.662;23.352;2023-04-24T12:21:14;6.25;;;4.53;;
41061;SDS011;26812;42.662;23.352;2023-04-24T12:23:45;5.28;;;4.25;;
41061;SDS011;26812;42.662;23.352;2023-04-24T12:26:20;5.85;;;4.90;;
41061;SDS011;26812;42.662;23.352;2023-04-24T12:28:48;4.35;;;3.88;;
41061;SDS011;26812;42.662;23.352;2023-04-24T12:31:17;5.65;;;4.00;;
41061;SDS011;26812;42.662;23.352;2023-04-24T12:33:42;3.97;;;3.63;;
41061;SDS011;26812;42.662;23.352;2023-04-24T12:36:11;3.65;;;3.28;;
41061;SDS011;26812;42.662;23.352;2023-04-24T12:38:37;4.65;;;3.58;;
41061;SDS011;26812;42.662;23.352;2023-04-24T12:41:09;7.22;;;3.90;;
41061;SDS011;26812;42.662;23.352;2023-04-24T12:43:36;5.68;;;4.20;;
41061;SDS011;26812;42.662;23.352;2023-04-24T12:46:02;4.57;;;4.13;;
41061;SDS011;26812;42.662;23.352;2023-04-24T12:48:28;5.00;;;4.53;;
41061;SDS011;26812;42.662;23.352;2023-04-24T12:50:56;4.85;;;4.35;;
41061;SDS011;26812;42.662;23.352;2023-04-24T12:53:25;5.22;;;4.68;;
41061;SDS011;26812;42.662;23.352;2023-04-24T12:55:51;6.10;;;4.50;;
41061;SDS011;26812;42.662;23.352;2023-04-24T12:58:20;4.90;;;3.85;;
41061;SDS011;26812;42.662;23.352;2023-04-24T13:00:46;5.43;;;3.80;;
41061;SDS011;26812;42.662;23.352;2023-04-24T13:03:12;4.70;;;4.22;;
41061;SDS011;26812;42.662;23.352;2023-04-24T13:05:39;6.05;;;4.35;;
41061;SDS011;26812;42.662;23.352;2023-04-24T13:08:04;5.38;;;4.35;;
41061;SDS011;26812;42.662;23.352;2023-04-24T13:10:30;5.32;;;4.10;;
41061;SDS011;26812;42.662;23.352;2023-04-24T13:12:56;4.68;;;4.22;;
41061;SDS011;26812;42.662;23.352;2023-04-24T13:15:22;4.85;;;4.47;;
41061;SDS011;26812;42.662;23.352;2023-04-24T13:17:47;5.13;;;4.63;;
41061;SDS011;26812;42.662;23.352;2023-04-24T13:20:13;10.57;;;4.72;;
41061;SDS011;26812;42.662;23.352;2023-04-24T13:22:38;5.38;;;4.15;;
41061;SDS011;26812;42.662;23.352;2023-04-24T13:25:04;5.60;;;4.53;;
41061;SDS011;26812;42.662;23.352;2023-04-24T13:27:31;4.68;;;4.28;;
41061;SDS011;26812;42.662;23.352;2023-04-24T13:29:56;4.88;;;4.40;;
41061;SDS011;26812;42.662;23.352;2023-04-24T13:32:21;7.50;;;4.40;;
41061;SDS011;26812;42.662;23.352;2023-04-24T13:34:47;6.60;;;5.28;;
41061;SDS011;26812;42.662;23.352;2023-04-24T13:37:12;5.07;;;4.68;;
41061;SDS011;26812;42.662;23.352;2023-04-24T13:39:38;4.85;;;4.40;;
41061;SDS011;26812;42.662;23.352;2023-04-24T13:42:03;5.10;;;4.45;;
41061;SDS011;26812;42.662;23.352;2023-04-24T13:44:29;4.90;;;4.03;;
41061;SDS011;26812;42.662;23.352;2023-04-24T13:46:54;5.82;;;4.90;;
41061;SDS011;26812;42.662;23.352;2023-04-24T13:49:22;4.95;;;4.07;;
41061;SDS011;26812;42.662;23.352;2023-04-24T13:51:50;4.63;;;4.18;;
41061;SDS011;26812;42.662;23.352;2023-04-24T13:54:16;4.40;;;4.00;;
41061;SDS011;26812;42.662;23.352;2023-04-24T13:56:42;5.28;;;4.53;;
41061;SDS011;26812;42.662;23.352;2023-04-24T13:59:07;5.18;;;4.68;;
41061;SDS011;26812;42.662;23.352;2023-04-24T14:01:33;6.03;;;4.32;;
41061;SDS011;26812;42.662;23.352;2023-04-24T14:03:59;6.35;;;4.30;;
41061;SDS011;26812;42.662;23.352;2023-04-24T14:06:24;6.30;;;4.55;;
41061;SDS011;26812;42.662;23.352;2023-04-24T14:08:50;4.70;;;4.30;;
41061;SDS011;26812;42.662;23.352;2023-04-24T14:11:16;4.50;;;4.10;;
41061;SDS011;26812;42.662;23.352;2023-04-24T14:13:42;5.50;;;3.97;;
41061;SDS011;26812;42.662;23.352;2023-04-24T14:16:08;4.43;;;4.03;;
41061;SDS011;26812;42.662;23.352;2023-04-24T14:18:34;4.93;;;4.50;;
41061;SDS011;26812;42.662;23.352;2023-04-24T14:20:59;5.20;;;4.70;;
41061;SDS011;26812;42.662;23.352;2023-04-24T14:23:26;4.35;;;4.00;;
41061;SDS011;26812;42.662;23.352;2023-04-24T14:25:52;5.00;;;3.58;;
41061;SDS011;26812;42.662;23.352;2023-04-24T14:28:18;4.13;;;3.75;;
41061;SDS011;26812;42.662;23.352;2023-04-24T14:30:45;4.88;;;3.35;;
41061;SDS011;26812;42.662;23.352;2023-04-24T14:33:10;4.13;;;3.72;;
41061;SDS011;26812;42.662;23.352;2023-04-24T14:35:37;4.10;;;3.70;;
41061;SDS011;26812;42.662;23.352;2023-04-24T14:38:03;4.25;;;3.58;;
41061;SDS011;26812;42.662;23.352;2023-04-24T14:40:28;3.90;;;3.60;;
41061;SDS011;26812;42.662;23.352;2023-04-24T14:42:54;4.45;;;4.03;;
41061;SDS011;26812;42.662;23.352;2023-04-24T14:45:22;3.90;;;3.60;;
41061;SDS011;26812;42.662;23.352;2023-04-24T14:47:53;4.20;;;3.80;;
41061;SDS011;26812;42.662;23.352;2023-04-24T14:50:20;4.95;;;3.95;;
41061;SDS011;26812;42.662;23.352;2023-04-24T14:52:46;4.78;;;4.10;;
41061;SDS011;26812;42.662;23.352;2023-04-24T14:55:14;3.80;;;3.50;;
41061;SDS011;26812;42.662;23.352;2023-04-24T14:57:43;4.32;;;3.92;;
41061;SDS011;26812;42.662;23.352;2023-04-24T15:00:08;6.03;;;4.07;;